Time;durP1;ratioP1;P1;durP2;ratioP2;P2;SDS_P1;SDS_P2;PMS_P1;PMS_P2;Temp;Humidity;BMP_temperature;BMP_pressure;BME280_temperature;BME280_humidity;BME280_pressure;Samples;Min_cycle;Max_cycle;Signal;HPM_P1;HPM_P2
2023/04/21 00:00:16;;;;;;;;;;;9.50;99.90;;;;;;5018243;28;20549;-77
2023/04/21 00:02:42;;;;;;;;;;;9.60;99.90;;;;;;5022378;28;20015;-77
2023/04/21 00:05:12;;;;;;;;;;;9.60;99.90;;;;;;5020816;28;19952;-77
2023/04/21 00:07:39;;;;;;;;;;;9.60;99.90;;;;;;5039369;28;19929;-77
2023/04/21 00:10:06;;;;;;;;;;;9.60;99.90;;;;;;5041091;28;19944;-77
2023/04/21 00:12:31;;;;;;;;;;;9.50;99.90;;;;;;5040746;28;19916;-77
2023/04/21 00:14:57;;;;;;;;;;;9.60;99.90;;;;;;5022570;28;19995;-77
2023/04/21 00:17:23;;;;;;;;;;;9.50;99.90;;;;;;5040032;28;19927;-77
2023/04/21 00:19:48;;;;;;;;;;;9.50;99.90;;;;;;5040984;28;19959;-77
2023/04/21 00:22:14;;;;;;;;;;;9.50;99.90;;;;;;5039023;28;19920;-77
2023/04/21 00:24:39;;;;;;;;;;;9.40;99.90;;;;;;5021909;28;19921;-77
2023/04/21 00:27:05;;;;;;;;;;;9.30;99.90;;;;;;5032413;28;19931;-77
2023/04/21 00:29:30;;;;;;;;;;;9.20;99.90;;;;;;5035511;28;20664;-77
2023/04/21 00:31:56;;;;;;;;;;;9.30;99.90;;;;;;5041491;28;20024;-76
2023/04/21 00:34:22;;;;;;;;;;;9.30;99.90;;;;;;5038643;28;19944;-77
2023/04/21 00:36:47;;;;;;;;;;;9.10;99.90;;;;;;5041065;28;19976;-76
2023/04/21 00:39:13;;;;;;;;;;;9.30;99.90;;;;;;5040877;28;19928;-77
2023/04/21 00:41:39;;;;;;;;;;;9.40;99.90;;;;;;5040806;28;20309;-77
2023/04/21 00:44:08;;;;;;;;;;;9.30;99.90;;;;;;5039382;28;19996;-77
2023/04/21 00:46:34;;;;;;;;;;;9.30;99.90;;;;;;5017032;28;20058;-77
2023/04/21 00:49:02;;;;;;;;;;;9.30;99.90;;;;;;5037140;28;20007;-77
2023/04/21 00:51:27;;;;;;;;;;;9.30;99.90;;;;;;5040294;28;19920;-77
2023/04/21 00:53:54;;;;;;;;;;;9.20;99.90;;;;;;5041428;28;19920;-77
2023/04/21 00:56:21;;;;;;;;;;;9.30;99.90;;;;;;5034333;28;19920;-77
2023/04/21 00:58:46;;;;;;;;;;;9.20;99.90;;;;;;5037405;28;19956;-77
2023/04/21 01:01:12;;;;;;;;;;;9.20;99.90;;;;;;5037175;28;20373;-77
2023/04/21 01:03:38;;;;;;;;;;;9.40;99.90;;;;;;5040357;28;20358;-77
2023/04/21 01:06:03;;;;;;;;;;;9.40;99.90;;;;;;5041419;28;19917;-77
2023/04/21 01:08:30;;;;;;;;;;;9.30;99.90;;;;;;5041174;28;19920;-77
2023/04/21 01:10:55;;;;;;;;;;;9.20;99.90;;;;;;5041997;28;19920;-77
2023/04/21 01:13:21;;;;;;;;;;;9.30;99.90;;;;;;5038021;28;19970;-77
2023/04/21 01:15:47;;;;;;;;;;;9.30;99.90;;;;;;5039808;28;19917;-77
2023/04/21 01:18:13;;;;;;;;;;;9.20;99.90;;;;;;5023771;28;19952;-77
2023/04/21 01:20:39;;;;;;;;;;;9.20;99.90;;;;;;5036686;28;20026;-77
2023/04/21 01:23:04;;;;;;;;;;;9.30;99.90;;;;;;5041438;28;19921;-77
2023/04/21 01:25:30;;;;;;;;;;;9.40;99.90;;;;;;5036028;28;19928;-77
2023/04/21 01:27:55;;;;;;;;;;;9.40;99.90;;;;;;5036889;28;19916;-77
2023/04/21 01:30:21;;;;;;;;;;;9.40;99.90;;;;;;5039299;28;20266;-77
2023/04/21 01:32:46;;;;;;;;;;;9.40;99.90;;;;;;5041555;28;19928;-77
2023/04/21 01:35:12;;;;;;;;;;;9.50;99.90;;;;;;5037923;28;19928;-77
2023/04/21 01:37:38;;;;;;;;;;;9.50;99.90;;;;;;5040343;28;19928;-77
2023/04/21 01:40:05;;;;;;;;;;;9.50;99.90;;;;;;5040098;28;19921;-77
2023/04/21 01:42:32;;;;;;;;;;;9.60;99.90;;;;;;5019175;28;20015;-77
2023/04/21 01:44:58;;;;;;;;;;;9.60;99.90;;;;;;5037825;28;19920;-77
2023/04/21 01:47:24;;;;;;;;;;;9.70;99.90;;;;;;5024426;28;20415;-77
2023/04/21 01:49:49;;;;;;;;;;;9.60;99.90;;;;;;5039937;28;19920;-77
2023/04/21 01:52:15;;;;;;;;;;;9.60;99.90;;;;;;5041558;28;19916;-77
2023/04/21 01:54:40;;;;;;;;;;;9.60;99.90;;;;;;5039538;28;20031;-78
2023/04/21 01:57:06;;;;;;;;;;;9.70;99.90;;;;;;5041648;28;19963;-77
2023/04/21 01:59:32;;;;;;;;;;;9.70;99.90;;;;;;5004547;28;19925;-77
2023/04/21 02:01:57;;;;;;;;;;;9.80;99.90;;;;;;5040283;28;19936;-78
2023/04/21 02:04:23;;;;;;;;;;;10.00;99.90;;;;;;5039950;28;19928;-78
2023/04/21 02:06:49;;;;;;;;;;;9.90;99.90;;;;;;5038412;28;19920;-77
2023/04/21 02:09:14;;;;;;;;;;;9.90;99.90;;;;;;5036559;28;20012;-78
2023/04/21 02:11:40;;;;;;;;;;;9.90;99.90;;;;;;5020855;28;19966;-77
2023/04/21 02:14:05;;;;;;;;;;;9.90;99.90;;;;;;5023250;28;19921;-77
2023/04/21 02:16:31;;;;;;;;;;;9.80;99.90;;;;;;5036828;28;19920;-77
2023/04/21 02:18:58;;;;;;;;;;;9.80;99.90;;;;;;5041052;28;19968;-77
2023/04/21 02:21:24;;;;;;;;;;;9.90;99.90;;;;;;5021743;28;19927;-77
2023/04/21 02:23:50;;;;;;;;;;;9.90;99.90;;;;;;5037337;28;20293;-77
2023/04/21 02:26:15;;;;;;;;;;;9.90;99.90;;;;;;5039123;28;20020;-77
2023/04/21 02:28:41;;;;;;;;;;;9.90;99.90;;;;;;5035033;28;19999;-77
2023/04/21 02:31:07;;;;;;;;;;;9.90;99.90;;;;;;5040195;28;20385;-77
2023/04/21 02:33:32;;;;;;;;;;;10.00;99.90;;;;;;5040314;28;20589;-77
2023/04/21 02:35:58;;;;;;;;;;;10.10;99.90;;;;;;5038407;28;19991;-77
2023/04/21 02:38:23;;;;;;;;;;;10.00;99.90;;;;;;5038016;28;19920;-78
2023/04/21 02:40:52;;;;;;;;;;;10.00;99.90;;;;;;5021536;28;19920;-77
2023/04/21 02:43:17;;;;;;;;;;;10.00;99.90;;;;;;5022454;28;19979;-78
2023/04/21 02:45:43;;;;;;;;;;;9.90;99.90;;;;;;5035533;28;19916;-77
2023/04/21 02:48:09;;;;;;;;;;;10.00;99.90;;;;;;5020942;28;20388;-78
2023/04/21 02:50:35;;;;;;;;;;;10.10;99.90;;;;;;5021231;28;19979;-77
2023/04/21 02:53:00;;;;;;;;;;;10.00;99.90;;;;;;5039206;28;19921;-77
2023/04/21 02:55:26;;;;;;;;;;;10.00;99.90;;;;;;5037774;28;19920;-77
2023/04/21 02:57:51;;;;;;;;;;;10.00;99.90;;;;;;5036740;28;19916;-77
2023/04/21 03:00:17;;;;;;;;;;;10.00;99.90;;;;;;5037815;28;19925;-77
2023/04/21 03:02:43;;;;;;;;;;;10.00;99.90;;;;;;5039593;28;19928;-78
2023/04/21 03:05:09;;;;;;;;;;;10.00;99.90;;;;;;5036877;28;19921;-78
2023/04/21 03:07:35;;;;;;;;;;;10.00;99.90;;;;;;5035112;28;19927;-77
2023/04/21 03:10:01;;;;;;;;;;;10.10;99.90;;;;;;5037100;28;19916;-77
2023/04/21 03:12:26;;;;;;;;;;;10.20;99.90;;;;;;5039866;28;19927;-77
2023/04/21 03:14:52;;;;;;;;;;;10.10;99.90;;;;;;5038711;28;19921;-77
2023/04/21 03:17:17;;;;;;;;;;;10.10;99.90;;;;;;5041609;28;19929;-78
2023/04/21 03:19:43;;;;;;;;;;;10.10;99.90;;;;;;5038619;28;19932;-77
2023/04/21 03:22:08;;;;;;;;;;;10.10;99.90;;;;;;5040446;28;19927;-77
2023/04/21 03:24:34;;;;;;;;;;;10.10;99.90;;;;;;5043054;28;20277;-78
2023/04/21 03:27:00;;;;;;;;;;;10.10;99.90;;;;;;5040973;28;20011;-77
2023/04/21 03:29:26;;;;;;;;;;;10.00;99.90;;;;;;5020502;28;19924;-78
2023/04/21 03:31:51;;;;;;;;;;;10.00;99.90;;;;;;5024955;28;19929;-77
2023/04/21 03:34:17;;;;;;;;;;;10.00;99.90;;;;;;5024625;28;20023;-78
2023/04/21 03:36:42;;;;;;;;;;;9.90;99.90;;;;;;5040690;28;19924;-78
2023/04/21 03:39:08;;;;;;;;;;;9.90;99.90;;;;;;5040622;28;19967;-77
2023/04/21 03:41:34;;;;;;;;;;;10.00;99.90;;;;;;5041897;28;19917;-77
2023/04/21 03:43:59;;;;;;;;;;;9.90;99.90;;;;;;5041048;28;20321;-77
2023/04/21 03:46:25;;;;;;;;;;;9.90;99.90;;;;;;5040645;28;19921;-77
2023/04/21 03:48:50;;;;;;;;;;;10.00;99.90;;;;;;5040851;28;19983;-77
2023/04/21 03:51:16;;;;;;;;;;;9.90;99.90;;;;;;5040947;28;19924;-77
2023/04/21 03:53:42;;;;;;;;;;;9.90;99.90;;;;;;5042625;28;19917;-78
2023/04/21 03:56:08;;;;;;;;;;;10.10;99.90;;;;;;5041646;28;19916;-78
2023/04/21 03:58:34;;;;;;;;;;;9.90;99.90;;;;;;5026945;28;20028;-77
2023/04/21 04:00:59;;;;;;;;;;;10.00;99.90;;;;;;5023884;28;20020;-78
2023/04/21 04:03:25;;;;;;;;;;;9.90;99.90;;;;;;5041447;28;19928;-77
2023/04/21 04:05:51;;;;;;;;;;;10.00;99.90;;;;;;5038754;28;19920;-77
2023/04/21 04:08:16;;;;;;;;;;;9.90;99.90;;;;;;5039995;28;19917;-77
2023/04/21 04:10:42;;;;;;;;;;;10.00;99.90;;;;;;5038084;28;19929;-77
2023/04/21 04:13:07;;;;;;;;;;;10.00;99.90;;;;;;5009052;28;19921;-78
2023/04/21 04:15:33;;;;;;;;;;;10.00;99.90;;;;;;5020716;28;20366;-77
2023/04/21 04:17:58;;;;;;;;;;;10.00;99.90;;;;;;5019582;28;19920;-77
2023/04/21 04:20:24;;;;;;;;;;;10.00;99.90;;;;;;5039834;28;19928;-77
2023/04/21 04:22:50;;;;;;;;;;;10.00;99.90;;;;;;5021140;28;19987;-77
2023/04/21 04:25:16;;;;;;;;;;;10.00;99.90;;;;;;5037952;28;20419;-78
2023/04/21 04:27:43;;;;;;;;;;;9.90;99.90;;;;;;5039788;28;20020;-77
2023/04/21 04:30:09;;;;;;;;;;;9.90;99.90;;;;;;5039012;28;19920;-78
2023/04/21 04:32:36;;;;;;;;;;;9.90;99.90;;;;;;5039818;28;20011;-77
2023/04/21 04:35:03;;;;;;;;;;;9.90;99.90;;;;;;5019740;28;19978;-78
2023/04/21 04:37:28;;;;;;;;;;;9.90;99.90;;;;;;5020575;28;19921;-78
2023/04/21 04:39:54;;;;;;;;;;;9.90;99.90;;;;;;5037909;28;19929;-77
2023/04/21 04:42:19;;;;;;;;;;;9.80;99.90;;;;;;5040452;28;19928;-77
2023/04/21 04:44:45;;;;;;;;;;;9.80;99.90;;;;;;5019822;28;19928;-78
2023/04/21 04:47:11;;;;;;;;;;;9.90;99.90;;;;;;5036979;28;19921;-77
2023/04/21 04:49:37;;;;;;;;;;;9.90;99.90;;;;;;5037605;28;19924;-77
2023/04/21 04:52:03;;;;;;;;;;;9.90;99.90;;;;;;5039002;28;20424;-78
2023/04/21 04:54:28;;;;;;;;;;;10.00;99.90;;;;;;5040131;28;20520;-77
2023/04/21 04:56:55;;;;;;;;;;;10.00;99.90;;;;;;5037584;28;19928;-77
2023/04/21 04:59:21;;;;;;;;;;;10.20;99.90;;;;;;5013864;28;20407;-77
2023/04/21 05:01:46;;;;;;;;;;;10.40;99.90;;;;;;5001827;28;20924;-77
2023/04/21 05:04:15;;;;;;;;;;;10.60;99.90;;;;;;5020829;28;20534;-78
2023/04/21 05:06:41;;;;;;;;;;;10.80;99.90;;;;;;5000702;28;19921;-77
2023/04/21 05:09:06;;;;;;;;;;;10.80;99.90;;;;;;5000939;28;20317;-78
2023/04/21 05:11:32;;;;;;;;;;;11.00;99.90;;;;;;5008475;28;19974;-78
2023/04/21 05:13:57;;;;;;;;;;;11.10;99.90;;;;;;5033371;28;20309;-78
2023/04/21 05:16:23;;;;;;;;;;;11.10;99.90;;;;;;5036440;28;20031;-77
2023/04/21 05:18:54;;;;;;;;;;;11.00;99.90;;;;;;5033973;28;19928;-78
2023/04/21 05:21:26;;;;;;;;;;;11.00;99.90;;;;;;5018111;28;19916;-77
2023/04/21 05:23:52;;;;;;;;;;;11.10;99.90;;;;;;5016189;28;19936;-77
2023/04/21 05:26:18;;;;;;;;;;;11.60;99.90;;;;;;5013302;28;20293;-78
2023/04/21 05:28:43;;;;;;;;;;;11.30;99.90;;;;;;5018474;28;19923;-78
2023/04/21 05:31:09;;;;;;;;;;;11.60;99.90;;;;;;5002851;28;19920;-78
2023/04/21 05:33:35;;;;;;;;;;;11.40;99.90;;;;;;5033710;28;19972;-77
2023/04/21 05:36:00;;;;;;;;;;;11.60;99.90;;;;;;4999382;28;19986;-78
2023/04/21 05:38:26;;;;;;;;;;;11.80;99.90;;;;;;5036542;28;19921;-78
2023/04/21 05:40:52;;;;;;;;;;;11.20;99.90;;;;;;5035220;28;19983;-78
2023/04/21 05:43:18;;;;;;;;;;;11.50;99.90;;;;;;5034807;28;20324;-78
2023/04/21 05:45:44;;;;;;;;;;;11.50;99.90;;;;;;5033489;28;19929;-78
2023/04/21 05:48:09;;;;;;;;;;;11.50;99.90;;;;;;5037836;28;20593;-78
2023/04/21 05:50:35;;;;;;;;;;;11.20;99.90;;;;;;5036040;28;20297;-77
2023/04/21 05:53:01;;;;;;;;;;;11.10;99.90;;;;;;5035875;28;20051;-78
2023/04/21 05:55:26;;;;;;;;;;;11.10;99.90;;;;;;5020171;28;19943;-78
2023/04/21 05:57:52;;;;;;;;;;;11.20;99.90;;;;;;5035432;28;19917;-78
2023/04/21 06:00:17;;;;;;;;;;;11.10;99.90;;;;;;5021111;28;19949;-78
2023/04/21 06:02:43;;;;;;;;;;;11.10;99.90;;;;;;5040291;28;19920;-77
2023/04/21 06:05:09;;;;;;;;;;;11.20;99.90;;;;;;5038167;28;19924;-78
2023/04/21 06:07:36;;;;;;;;;;;11.00;99.90;;;;;;5039205;28;19928;-77
2023/04/21 06:10:02;;;;;;;;;;;11.10;99.90;;;;;;5037927;28;19966;-78
2023/04/21 06:12:28;;;;;;;;;;;11.00;99.90;;;;;;5038774;28;20412;-78
2023/04/21 06:14:56;;;;;;;;;;;11.10;99.90;;;;;;5022229;28;20011;-77
2023/04/21 06:17:25;;;;;;;;;;;11.20;99.90;;;;;;5023791;28;20008;-79
2023/04/21 06:19:52;;;;;;;;;;;11.30;99.90;;;;;;5019787;28;20009;-78
2023/04/21 06:22:21;;;;;;;;;;;11.60;99.90;;;;;;5023153;28;19924;-79
2023/04/21 06:24:46;;;;;;;;;;;11.40;99.90;;;;;;5039216;28;20276;-79
2023/04/21 06:27:12;;;;;;;;;;;11.70;99.90;;;;;;5039143;28;19999;-78
2023/04/21 06:29:38;;;;;;;;;;;11.70;99.90;;;;;;5036106;28;20751;-77
2023/04/21 06:32:04;;;;;;;;;;;11.70;99.90;;;;;;5003736;28;20011;-77
2023/04/21 06:34:29;;;;;;;;;;;11.80;99.90;;;;;;5038867;28;19921;-78
2023/04/21 06:36:55;;;;;;;;;;;11.90;99.90;;;;;;5037535;28;20015;-78
2023/04/21 06:39:20;;;;;;;;;;;12.00;99.90;;;;;;5037408;28;19920;-78
2023/04/21 06:41:46;;;;;;;;;;;11.80;99.90;;;;;;5036859;28;19933;-78
2023/04/21 06:44:14;;;;;;;;;;;11.90;99.90;;;;;;5023855;28;19983;-78
2023/04/21 06:46:40;;;;;;;;;;;12.10;99.90;;;;;;5006413;28;19920;-78
2023/04/21 06:49:06;;;;;;;;;;;12.20;99.90;;;;;;5036429;28;19948;-77
2023/04/21 06:51:32;;;;;;;;;;;11.80;99.90;;;;;;5031600;28;20412;-78
2023/04/21 06:53:57;;;;;;;;;;;12.00;99.90;;;;;;5035523;28;19975;-78
2023/04/21 06:56:25;;;;;;;;;;;12.00;99.90;;;;;;5036437;28;19921;-78
2023/04/21 06:58:50;;;;;;;;;;;12.20;99.90;;;;;;5039302;28;20369;-79
2023/04/21 07:01:16;;;;;;;;;;;11.90;99.90;;;;;;5016056;28;19927;-79
2023/04/21 07:03:42;;;;;;;;;;;11.90;99.90;;;;;;5022007;28;19959;-78
2023/04/21 07:06:07;;;;;;;;;;;11.90;99.90;;;;;;5038070;28;19917;-78
2023/04/21 07:08:33;;;;;;;;;;;11.80;99.90;;;;;;5039098;28;20377;-78
2023/04/21 07:10:58;;;;;;;;;;;11.90;99.90;;;;;;5041181;28;20251;-78
2023/04/21 07:13:24;;;;;;;;;;;11.90;99.90;;;;;;5041015;28;19971;-79
2023/04/21 07:15:50;;;;;;;;;;;11.90;99.90;;;;;;5025094;28;21545;-77
2023/04/21 07:18:15;;;;;;;;;;;12.10;99.90;;;;;;5024967;28;19971;-78
2023/04/21 07:20:41;;;;;;;;;;;12.10;99.90;;;;;;5040771;28;20353;-80
2023/04/21 07:23:07;;;;;;;;;;;12.20;99.90;;;;;;5021232;28;20090;-80
2023/04/21 07:25:32;;;;;;;;;;;12.60;99.90;;;;;;5038887;28;19924;-78
2023/04/21 07:27:58;;;;;;;;;;;12.70;99.90;;;;;;5040269;28;19925;-80
2023/04/21 07:30:23;;;;;;;;;;;12.90;99.90;;;;;;5039562;28;19920;-79
2023/04/21 07:32:49;;;;;;;;;;;13.30;99.90;;;;;;5042320;28;19921;-78
2023/04/21 07:35:15;;;;;;;;;;;13.20;99.90;;;;;;5041042;28;20506;-80
2023/04/21 07:37:40;;;;;;;;;;;12.90;99.90;;;;;;5025423;28;19979;-78
2023/04/21 07:40:09;;;;;;;;;;;13.00;99.90;;;;;;5041798;28;19916;-78
2023/04/21 07:42:34;;;;;;;;;;;12.80;99.90;;;;;;5042458;28;19920;-78
2023/04/21 07:45:01;;;;;;;;;;;12.70;99.90;;;;;;5042830;28;19969;-78
2023/04/21 07:47:27;;;;;;;;;;;13.00;99.90;;;;;;5024206;28;20618;-78
2023/04/21 07:49:53;;;;;;;;;;;12.80;99.90;;;;;;5021304;28;20389;-79
2023/04/21 07:52:18;;;;;;;;;;;12.70;99.90;;;;;;5021947;28;19920;-80
2023/04/21 07:54:44;;;;;;;;;;;12.70;99.90;;;;;;5030848;28;19920;-78
2023/04/21 07:57:10;;;;;;;;;;;12.80;99.90;;;;;;5040385;28;19982;-79
2023/04/21 07:59:35;;;;;;;;;;;12.80;99.90;;;;;;5019551;28;20345;-80
2023/04/21 08:02:01;;;;;;;;;;;12.70;99.90;;;;;;5039926;28;19923;-79
2023/04/21 08:04:26;;;;;;;;;;;12.80;99.90;;;;;;5013230;28;19921;-79
2023/04/21 08:06:52;;;;;;;;;;;12.70;99.90;;;;;;5027843;28;20326;-79
2023/04/21 08:09:18;;;;;;;;;;;12.80;99.90;;;;;;5032910;28;19948;-79
2023/04/21 08:11:43;;;;;;;;;;;12.90;99.90;;;;;;5034789;28;20385;-78
2023/04/21 08:14:10;;;;;;;;;;;13.20;99.90;;;;;;5019704;28;19916;-78
2023/04/21 08:16:36;;;;;;;;;;;13.30;99.90;;;;;;5039355;28;19924;-78
2023/04/21 08:19:02;;;;;;;;;;;13.10;99.90;;;;;;5003648;28;20672;-78
2023/04/21 08:21:28;;;;;;;;;;;13.30;99.90;;;;;;5040137;28;19943;-78
2023/04/21 08:23:54;;;;;;;;;;;13.30;99.90;;;;;;5038366;28;19986;-79
2023/04/21 08:26:24;;;;;;;;;;;13.40;99.90;;;;;;5040110;28;19920;-78
2023/04/21 08:28:50;;;;;;;;;;;13.80;99.90;;;;;;5037772;28;19924;-78
2023/04/21 08:31:16;;;;;;;;;;;13.60;99.90;;;;;;5039806;28;19931;-78
2023/04/21 08:33:42;;;;;;;;;;;13.60;99.90;;;;;;5023756;28;19964;-78
2023/04/21 08:36:10;;;;;;;;;;;14.10;99.90;;;;;;5039922;28;19968;-79
2023/04/21 08:38:36;;;;;;;;;;;14.30;99.90;;;;;;5036872;28;20107;-78
2023/04/21 08:41:02;;;;;;;;;;;14.80;99.90;;;;;;5038072;28;19934;-79
2023/04/21 08:43:28;;;;;;;;;;;14.90;99.90;;;;;;5036663;28;20087;-78
2023/04/21 08:45:53;;;;;;;;;;;14.90;99.90;;;;;;5039194;28;19920;-78
2023/04/21 08:48:20;;;;;;;;;;;14.70;99.90;;;;;;5019108;28;19936;-78
2023/04/21 08:50:47;;;;;;;;;;;14.80;99.90;;;;;;5021703;28;20481;-79
2023/04/21 08:53:13;;;;;;;;;;;14.90;99.90;;;;;;5039209;28;19927;-79
2023/04/21 08:55:39;;;;;;;;;;;14.80;99.90;;;;;;5038133;28;19920;-78
2023/04/21 08:58:14;;;;;;;;;;;15.50;99.90;;;;;;5037227;28;20417;-79
2023/04/21 09:00:40;;;;;;;;;;;16.20;99.90;;;;;;5038698;28;19929;-78
2023/04/21 09:03:07;;;;;;;;;;;16.00;99.90;;;;;;5039510;28;19924;-80
2023/04/21 09:05:33;;;;;;;;;;;15.70;99.90;;;;;;5037082;28;20606;-79
2023/04/21 09:08:12;;;;;;;;;;;15.80;99.90;;;;;;5038710;28;19920;-81
2023/04/21 09:10:48;;;;;;;;;;;16.20;99.90;;;;;;5021624;28;19916;-80
2023/04/21 09:13:17;;;;;;;;;;;16.30;99.90;;;;;;5037103;28;19974;-79
2023/04/21 09:15:44;;;;;;;;;;;16.10;99.90;;;;;;5020352;28;19920;-79
2023/04/21 09:18:16;;;;;;;;;;;16.20;99.90;;;;;;5038796;28;19929;-79
2023/04/21 09:20:42;;;;;;;;;;;16.50;99.90;;;;;;5037878;28;19921;-78
2023/04/21 09:23:08;;;;;;;;;;;16.80;99.90;;;;;;5039207;28;19967;-79
2023/04/21 09:25:37;;;;;;;;;;;17.10;99.90;;;;;;5019393;28;19955;-78
2023/04/21 09:28:02;;;;;;;;;;;15.80;99.90;;;;;;5038321;28;19932;-78
2023/04/21 09:30:28;;;;;;;;;;;15.70;99.90;;;;;;5037459;28;19925;-77
2023/04/21 09:32:57;;;;;;;;;;;16.00;99.90;;;;;;5039507;28;19927;-78
2023/04/21 09:35:26;;;;;;;;;;;15.80;99.90;;;;;;5038277;28;19917;-78
2023/04/21 09:37:52;;;;;;;;;;;16.30;99.90;;;;;;5037963;28;19916;-77
2023/04/21 09:40:18;;;;;;;;;;;16.50;99.90;;;;;;5036650;28;19957;-78
2023/04/21 09:42:45;;;;;;;;;;;16.70;99.90;;;;;;5037493;28;19947;-78
2023/04/21 09:45:11;;;;;;;;;;;16.70;99.90;;;;;;5018625;28;20418;-79
2023/04/21 09:47:40;;;;;;;;;;;16.20;99.90;;;;;;5037155;28;20003;-80
2023/04/21 09:50:06;;;;;;;;;;;16.50;99.90;;;;;;5035950;28;19928;-77
2023/04/21 09:52:32;;;;;;;;;;;15.90;99.90;;;;;;5028281;28;19956;-78
2023/04/21 09:55:04;;;;;;;;;;;15.90;99.90;;;;;;5036384;28;19960;-77
2023/04/21 09:57:36;;;;;;;;;;;16.70;99.90;;;;;;5020848;28;19921;-78
2023/04/21 10:00:05;;;;;;;;;;;16.80;99.90;;;;;;5037114;28;19916;-79
2023/04/21 10:02:30;;;;;;;;;;;16.80;99.90;;;;;;5038155;28;19920;-79
2023/04/21 10:04:57;;;;;;;;;;;17.40;99.90;;;;;;5035863;28;19928;-77
2023/04/21 10:07:22;;;;;;;;;;;17.10;99.90;;;;;;5003757;28;19924;-78
2023/04/21 10:09:50;;;;;;;;;;;16.80;99.90;;;;;;5033359;28;19951;-78
2023/04/21 10:12:16;;;;;;;;;;;17.00;99.90;;;;;;5035673;28;19925;-78
2023/04/21 10:14:42;;;;;;;;;;;17.40;99.90;;;;;;5037861;28;19925;-79
2023/04/21 10:17:09;;;;;;;;;;;18.00;99.90;;;;;;5036727;28;20272;-79
2023/04/21 10:19:38;;;;;;;;;;;16.90;99.90;;;;;;5019351;28;19928;-78
2023/04/21 10:22:08;;;;;;;;;;;17.20;99.90;;;;;;5038954;28;19916;-79
2023/04/21 10:24:40;;;;;;;;;;;17.20;99.90;;;;;;5038944;28;20154;-78
2023/04/21 10:27:08;;;;;;;;;;;17.20;99.90;;;;;;5035648;28;19925;-79
2023/04/21 10:29:34;;;;;;;;;;;17.70;99.90;;;;;;5018773;28;19920;-77
2023/04/21 10:32:00;;;;;;;;;;;17.20;99.90;;;;;;5040407;28;19921;-78
2023/04/21 10:34:25;;;;;;;;;;;17.10;99.90;;;;;;5028708;28;19928;-78
2023/04/21 10:36:54;;;;;;;;;;;17.20;99.90;;;;;;5025754;28;19920;-78
2023/04/21 10:39:26;;;;;;;;;;;16.90;99.90;;;;;;5041886;28;19920;-79
2023/04/21 10:41:57;;;;;;;;;;;17.10;99.90;;;;;;5026452;28;19960;-78
2023/04/21 10:44:23;;;;;;;;;;;17.20;99.90;;;;;;5044505;28;19920;-79
2023/04/21 10:46:52;;;;;;;;;;;17.00;99.90;;;;;;5025723;28;19917;-79
2023/04/21 10:49:21;;;;;;;;;;;17.00;99.90;;;;;;5040654;28;20038;-77
2023/04/21 10:54:25;;;;;;;;;;;17.50;99.90;;;;;;5044834;28;19967;-77
2023/04/21 10:56:52;;;;;;;;;;;17.70;99.90;;;;;;5037144;28;19982;-79
2023/04/21 10:59:18;;;;;;;;;;;17.20;99.90;;;;;;5043123;28;20601;-79
2023/04/21 11:01:44;;;;;;;;;;;17.00;99.90;;;;;;5028275;28;20354;-78
2023/04/21 11:04:17;;;;;;;;;;;17.00;99.90;;;;;;5024100;28;19963;-79
2023/04/21 11:06:42;;;;;;;;;;;17.00;99.90;;;;;;5042447;28;19920;-77
2023/04/21 11:09:08;;;;;;;;;;;17.20;99.90;;;;;;5043055;28;19929;-77
2023/04/21 11:11:35;;;;;;;;;;;18.20;99.90;;;;;;5035075;28;20476;-78
2023/04/21 11:14:03;;;;;;;;;;;18.30;99.90;;;;;;5024395;28;19927;-78
2023/04/21 11:16:29;;;;;;;;;;;18.40;99.90;;;;;;5035925;28;19921;-80
2023/04/21 11:18:55;;;;;;;;;;;18.30;99.90;;;;;;5016705;28;19925;-79
2023/04/21 11:21:21;;;;;;;;;;;18.50;99.90;;;;;;5021568;28;19921;-78
2023/04/21 11:23:48;;;;;;;;;;;18.30;99.90;;;;;;5023285;28;20059;-79
2023/04/21 11:26:14;;;;;;;;;;;18.40;99.90;;;;;;5020246;28;19917;-78
2023/04/21 11:28:40;;;;;;;;;;;18.20;99.90;;;;;;5037072;28;19916;-79
2023/04/21 11:31:06;;;;;;;;;;;18.00;99.90;;;;;;5043885;28;19929;-78
2023/04/21 11:33:35;;;;;;;;;;;18.50;99.90;;;;;;5042043;28;19928;-78
2023/04/21 11:36:05;;;;;;;;;;;18.50;99.90;;;;;;5042357;28;19944;-78
2023/04/21 11:38:40;;;;;;;;;;;18.90;99.90;;;;;;5042147;28;19928;-78
2023/04/21 11:41:05;;;;;;;;;;;19.60;99.90;;;;;;5037740;28;20150;-78
2023/04/21 11:43:31;;;;;;;;;;;18.80;99.90;;;;;;4985326;28;19920;-78
2023/04/21 11:46:12;;;;;;;;;;;18.50;99.90;;;;;;5024570;28;19932;-79
2023/04/21 11:48:38;;;;;;;;;;;18.10;99.90;;;;;;5025258;28;19935;-78
2023/04/21 11:51:03;;;;;;;;;;;18.00;99.90;;;;;;5026952;28;19928;-78
2023/04/21 11:53:29;;;;;;;;;;;17.70;99.90;;;;;;5010996;28;20405;-78
2023/04/21 11:55:55;;;;;;;;;;;17.80;99.90;;;;;;5023923;28;19978;-80
2023/04/21 11:58:21;;;;;;;;;;;17.80;99.90;;;;;;5023034;28;19929;-78
2023/04/21 12:00:49;;;;;;;;;;;18.00;99.90;;;;;;5006833;28;20642;-80
2023/04/21 12:03:14;;;;;;;;;;;18.20;99.90;;;;;;5007810;28;21089;-78
2023/04/21 12:05:40;;;;;;;;;;;18.40;99.90;;;;;;5030295;28;19921;-80
2023/04/21 12:08:11;;;;;;;;;;;18.30;99.90;;;;;;5022845;28;19928;-80
2023/04/21 12:10:37;;;;;;;;;;;18.40;99.90;;;;;;5022543;28;20014;-79
2023/04/21 12:13:02;;;;;;;;;;;18.40;99.90;;;;;;5016601;28;19921;-78
2023/04/21 12:15:28;;;;;;;;;;;19.10;99.90;;;;;;5037616;28;20015;-77
2023/04/21 12:17:54;;;;;;;;;;;19.20;99.90;;;;;;5038173;28;19937;-79
2023/04/21 12:20:21;;;;;;;;;;;18.90;99.90;;;;;;5036957;28;20014;-78
2023/04/21 12:22:47;;;;;;;;;;;18.90;99.90;;;;;;5022678;28;19929;-78
2023/04/21 12:25:13;;;;;;;;;;;19.40;99.90;;;;;;5039670;28;19950;-78
2023/04/21 12:27:48;;;;;;;;;;;20.50;99.90;;;;;;5034785;28;20313;-78
2023/04/21 12:30:14;;;;;;;;;;;20.20;99.90;;;;;;5011936;28;19921;-79
2023/04/21 12:32:40;;;;;;;;;;;20.60;99.90;;;;;;5015763;28;20032;-78
2023/04/21 12:35:05;;;;;;;;;;;20.20;99.90;;;;;;5028104;28;19925;-78
2023/04/21 12:37:31;;;;;;;;;;;20.10;99.90;;;;;;5021607;28;20274;-80
2023/04/21 12:39:57;;;;;;;;;;;19.80;99.90;;;;;;5031831;28;20012;-78
2023/04/21 12:42:22;;;;;;;;;;;20.20;99.90;;;;;;5036558;28;19979;-79
2023/04/21 12:44:48;;;;;;;;;;;19.60;99.90;;;;;;5021051;28;19964;-78
2023/04/21 12:47:14;;;;;;;;;;;19.10;99.90;;;;;;5028191;28;19978;-78
2023/04/21 12:49:40;;;;;;;;;;;19.20;99.90;;;;;;5019860;28;19916;-78
2023/04/21 12:52:06;;;;;;;;;;;19.00;99.90;;;;;;5021801;28;19928;-78
2023/04/21 12:54:32;;;;;;;;;;;18.80;99.90;;;;;;5038379;28;20274;-78
2023/04/21 12:56:58;;;;;;;;;;;19.00;99.90;;;;;;5027609;28;19928;-77
2023/04/21 12:59:23;;;;;;;;;;;18.90;99.90;;;;;;5025032;28;19929;-79
2023/04/21 13:01:49;;;;;;;;;;;19.10;99.90;;;;;;5015861;28;19921;-78
2023/04/21 13:04:14;;;;;;;;;;;19.30;99.90;;;;;;5024641;28;20393;-78
2023/04/21 13:06:40;;;;;;;;;;;19.80;99.90;;;;;;5031041;28;19921;-77
2023/04/21 13:09:06;;;;;;;;;;;19.20;99.90;;;;;;5027345;28;20069;-78
2023/04/21 13:11:32;;;;;;;;;;;19.20;99.90;;;;;;5022844;28;19925;-79
2023/04/21 13:13:57;;;;;;;;;;;19.00;99.90;;;;;;5028815;28;20014;-79
2023/04/21 13:16:23;;;;;;;;;;;19.00;99.90;;;;;;5029745;28;19968;-78
2023/04/21 13:18:48;;;;;;;;;;;19.00;99.90;;;;;;5015522;28;19983;-79
2023/04/21 13:21:14;;;;;;;;;;;18.90;99.90;;;;;;5014966;28;20397;-78
2023/04/21 13:23:40;;;;;;;;;;;18.90;99.90;;;;;;5039690;28;19959;-78
2023/04/21 13:26:05;;;;;;;;;;;19.00;99.90;;;;;;5016900;28;20573;-77
2023/04/21 13:28:31;;;;;;;;;;;18.90;99.90;;;;;;5031777;28;20321;-80
2023/04/21 13:30:57;;;;;;;;;;;18.90;99.90;;;;;;5032995;28;19921;-78
2023/04/21 13:33:23;;;;;;;;;;;18.90;99.90;;;;;;5034458;28;20366;-78
2023/04/21 13:35:48;;;;;;;;;;;18.80;99.90;;;;;;5033716;28;20002;-77
2023/04/21 13:38:14;;;;;;;;;;;18.80;99.90;;;;;;5019937;28;19997;-78
2023/04/21 13:40:40;;;;;;;;;;;18.80;99.90;;;;;;5034703;28;20247;-78
2023/04/21 13:43:05;;;;;;;;;;;18.80;99.90;;;;;;5029495;28;19934;-80
2023/04/21 13:45:31;;;;;;;;;;;18.80;99.90;;;;;;5030501;28;20416;-77
2023/04/21 13:47:59;;;;;;;;;;;18.90;99.90;;;;;;5028746;28;19960;-79
2023/04/21 13:50:25;;;;;;;;;;;19.00;99.90;;;;;;5023511;28;19998;-77
2023/04/21 13:52:51;;;;;;;;;;;19.10;99.80;;;;;;5031196;28;20523;-78
2023/04/21 13:55:16;;;;;;;;;;;19.70;98.90;;;;;;4997396;28;19934;-76
2023/04/21 13:57:42;;;;;;;;;;;19.90;99.90;;;;;;5015981;28;19995;-78
2023/04/21 14:00:09;;;;;;;;;;;19.90;99.90;;;;;;5016273;28;20258;-78
2023/04/21 14:02:35;;;;;;;;;;;19.70;98.10;;;;;;5035178;28;19928;-77
2023/04/21 14:05:01;;;;;;;;;;;19.80;98.70;;;;;;5033685;28;20535;-78
2023/04/21 14:07:26;;;;;;;;;;;19.60;98.50;;;;;;5029813;28;19929;-78
2023/04/21 14:09:52;;;;;;;;;;;19.50;99.20;;;;;;5032851;28;20364;-78
2023/04/21 14:12:17;;;;;;;;;;;19.50;97.40;;;;;;5035843;28;19920;-76
2023/04/21 14:14:43;;;;;;;;;;;20.00;99.40;;;;;;5034570;28;19927;-78
2023/04/21 14:17:09;;;;;;;;;;;20.30;99.70;;;;;;5012849;28;19920;-77